sensor_id;sensor_type;location;lat;lon;timestamp;pressure;altitude;pressure_sealevel;temperature;humidity
20628;BME280;10473;42.734;24.258;2022-09-25T00:01:16;92228.78;;;10.12;63.63
20628;BME280;10473;42.734;24.258;2022-09-25T00:03:44;92234.50;;;10.14;63.89
20628;BME280;10473;42.734;24.258;2022-09-25T00:06:17;92229.31;;;10.21;63.09
20628;BME280;10473;42.734;24.258;2022-09-25T00:08:46;92233.84;;;10.20;63.28
20628;BME280;10473;42.734;24.258;2022-09-25T00:11:15;92235.72;;;10.20;63.54
20628;BME280;10473;42.734;24.258;2022-09-25T00:13:45;92240.91;;;10.13;63.63
20628;BME280;10473;42.734;24.258;2022-09-25T00:16:16;92239.38;;;10.12;63.80
20628;BME280;10473;42.734;24.258;2022-09-25T00:18:44;92236.47;;;9.98;64.46
20628;BME280;10473;42.734;24.258;2022-09-25T00:21:30;92223.53;;;9.93;63.76
20628;BME280;10473;42.734;24.258;2022-09-25T00:23:58;92236.75;;;9.93;63.92
20628;BME280;10473;42.734;24.258;2022-09-25T00:26:27;92226.19;;;9.93;64.38
20628;BME280;10473;42.734;24.258;2022-09-25T00:28:59;92225.59;;;10.03;64.55
20628;BME280;10473;42.734;24.258;2022-09-25T00:31:28;92226.41;;;10.07;64.08
20628;BME280;10473;42.734;24.258;2022-09-25T00:33:57;92213.75;;;9.97;63.91
20628;BME280;10473;42.734;24.258;2022-09-25T00:36:26;92210.13;;;10.05;63.46
20628;BME280;10473;42.734;24.258;2022-09-25T00:38:54;92223.63;;;10.00;63.94
20628;BME280;10473;42.734;24.258;2022-09-25T00:41:23;92216.41;;;9.97;63.34
20628;BME280;10473;42.734;24.258;2022-09-25T00:43:53;92229.28;;;9.98;63.86
20628;BME280;10473;42.734;24.258;2022-09-25T00:46:26;92214.81;;;9.92;63.17
20628;BME280;10473;42.734;24.258;2022-09-25T00:48:58;92221.03;;;10.03;63.27
20628;BME280;10473;42.734;24.258;2022-09-25T00:51:32;92212.22;;;9.96;63.30
20628;BME280;10473;42.734;24.258;2022-09-25T00:54:04;92220.06;;;9.89;63.59
20628;BME280;10473;42.734;24.258;2022-09-25T00:56:36;92216.22;;;9.86;63.76
20628;BME280;10473;42.734;24.258;2022-09-25T00:59:07;92213.25;;;9.88;64.06
20628;BME280;10473;42.734;24.258;2022-09-25T01:01:38;92201.78;;;9.80;63.40
20628;BME280;10473;42.734;24.258;2022-09-25T01:04:06;92203.97;;;9.78;63.52
20628;BME280;10473;42.734;24.258;2022-09-25T01:06:38;92206.34;;;9.83;64.02
20628;BME280;10473;42.734;24.258;2022-09-25T01:09:06;92200.09;;;9.72;64.17
20628;BME280;10473;42.734;24.258;2022-09-25T01:11:34;92197.25;;;9.62;64.60
20628;BME280;10473;42.734;24.258;2022-09-25T01:14:03;92184.03;;;9.62;64.41
20628;BME280;10473;42.734;24.258;2022-09-25T01:16:36;92202.41;;;9.74;63.93
20628;BME280;10473;42.734;24.258;2022-09-25T01:19:14;92183.69;;;9.63;63.59
20628;BME280;10473;42.734;24.258;2022-09-25T01:21:50;92190.44;;;9.61;64.46
20628;BME280;10473;42.734;24.258;2022-09-25T01:24:41;92187.88;;;9.45;64.39
20628;BME280;10473;42.734;24.258;2022-09-25T01:27:34;92188.94;;;9.41;64.99
20628;BME280;10473;42.734;24.258;2022-09-25T01:30:09;92194.66;;;9.43;64.87
20628;BME280;10473;42.734;24.258;2022-09-25T01:32:47;92185.06;;;8.97;65.46
20628;BME280;10473;42.734;24.258;2022-09-25T01:35:25;92188.56;;;9.20;65.38
20628;BME280;10473;42.734;24.258;2022-09-25T01:38:03;92182.16;;;9.21;65.14
20628;BME280;10473;42.734;24.258;2022-09-25T01:40:38;92193.00;;;9.35;64.69
20628;BME280;10473;42.734;24.258;2022-09-25T01:43:11;92195.66;;;9.35;64.66
20628;BME280;10473;42.734;24.258;2022-09-25T01:45:42;92192.56;;;9.33;64.62
20628;BME280;10473;42.734;24.258;2022-09-25T01:48:15;92190.09;;;9.21;64.54
20628;BME280;10473;42.734;24.258;2022-09-25T01:50:48;92187.84;;;9.23;64.40
20628;BME280;10473;42.734;24.258;2022-09-25T01:53:22;92193.84;;;9.20;64.43
20628;BME280;10473;42.734;24.258;2022-09-25T01:55:56;92176.81;;;9.17;64.72
20628;BME280;10473;42.734;24.258;2022-09-25T01:58:29;92190.94;;;9.25;64.82
20628;BME280;10473;42.734;24.258;2022-09-25T02:01:03;92188.63;;;9.23;65.31
20628;BME280;10473;42.734;24.258;2022-09-25T02:03:35;92199.97;;;9.24;65.42
20628;BME280;10473;42.734;24.258;2022-09-25T02:06:07;92202.19;;;9.22;65.20
20628;BME280;10473;42.734;24.258;2022-09-25T02:08:40;92203.59;;;9.16;65.10
20628;BME280;10473;42.734;24.258;2022-09-25T02:11:10;92203.88;;;9.11;65.47
20628;BME280;10473;42.734;24.258;2022-09-25T02:13:43;92191.72;;;9.06;64.81
20628;BME280;10473;42.734;24.258;2022-09-25T02:16:18;92219.44;;;9.16;64.73
20628;BME280;10473;42.734;24.258;2022-09-25T02:18:48;92205.72;;;9.10;65.46
20628;BME280;10473;42.734;24.258;2022-09-25T02:21:41;92207.19;;;9.08;65.15
20628;BME280;10473;42.734;24.258;2022-09-25T02:24:16;92193.16;;;9.04;65.49
20628;BME280;10473;42.734;24.258;2022-09-25T02:26:47;92209.72;;;9.20;65.03
20628;BME280;10473;42.734;24.258;2022-09-25T02:29:16;92203.59;;;9.16;65.33
20628;BME280;10473;42.734;24.258;2022-09-25T02:31:48;92205.38;;;9.12;65.08
20628;BME280;10473;42.734;24.258;2022-09-25T02:34:18;92200.25;;;9.19;64.59
20628;BME280;10473;42.734;24.258;2022-09-25T02:36:46;92204.38;;;9.16;64.36
20628;BME280;10473;42.734;24.258;2022-09-25T02:39:16;92199.06;;;9.16;64.35
20628;BME280;10473;42.734;24.258;2022-09-25T02:42:08;92200.03;;;9.08;64.84
20628;BME280;10473;42.734;24.258;2022-09-25T02:44:49;92195.53;;;8.90;65.19
20628;BME280;10473;42.734;24.258;2022-09-25T02:47:27;92195.22;;;8.76;66.13
20628;BME280;10473;42.734;24.258;2022-09-25T02:50:03;92194.69;;;8.86;65.66
20628;BME280;10473;42.734;24.258;2022-09-25T02:52:36;92186.13;;;8.92;65.37
20628;BME280;10473;42.734;24.258;2022-09-25T02:55:08;92177.38;;;8.88;65.01
20628;BME280;10473;42.734;24.258;2022-09-25T02:57:44;92187.78;;;9.00;65.22
20628;BME280;10473;42.734;24.258;2022-09-25T03:00:15;92184.53;;;9.07;64.75
20628;BME280;10473;42.734;24.258;2022-09-25T03:02:45;92186.97;;;8.96;65.48
20628;BME280;10473;42.734;24.258;2022-09-25T03:05:13;92188.41;;;8.94;65.23
20628;BME280;10473;42.734;24.258;2022-09-25T03:07:42;92179.78;;;8.78;65.74
20628;BME280;10473;42.734;24.258;2022-09-25T03:10:28;92183.41;;;8.89;65.40
20628;BME280;10473;42.734;24.258;2022-09-25T03:13:11;92185.75;;;8.94;65.70
20628;BME280;10473;42.734;24.258;2022-09-25T03:15:40;92184.19;;;8.89;65.22
20628;BME280;10473;42.734;24.258;2022-09-25T03:18:13;92186.88;;;8.74;65.54
20628;BME280;10473;42.734;24.258;2022-09-25T03:20:42;92179.56;;;8.86;65.59
20628;BME280;10473;42.734;24.258;2022-09-25T03:23:09;92177.22;;;8.81;65.31
20628;BME280;10473;42.734;24.258;2022-09-25T03:25:38;92184.94;;;8.90;65.15
20628;BME280;10473;42.734;24.258;2022-09-25T03:28:08;92186.47;;;8.91;65.02
20628;BME280;10473;42.734;24.258;2022-09-25T03:30:37;92188.41;;;8.94;64.97
20628;BME280;10473;42.734;24.258;2022-09-25T03:33:06;92188.84;;;8.96;64.77
20628;BME280;10473;42.734;24.258;2022-09-25T03:35:37;92180.22;;;8.99;64.76
20628;BME280;10473;42.734;24.258;2022-09-25T03:38:06;92178.28;;;8.96;64.82
20628;BME280;10473;42.734;24.258;2022-09-25T03:40:35;92178.13;;;8.89;64.97
20628;BME280;10473;42.734;24.258;2022-09-25T03:43:03;92169.72;;;8.83;64.80
20628;BME280;10473;42.734;24.258;2022-09-25T03:45:30;92160.19;;;8.79;65.49
20628;BME280;10473;42.734;24.258;2022-09-25T03:47:58;92166.81;;;8.88;64.80
20628;BME280;10473;42.734;24.258;2022-09-25T03:50:26;92170.69;;;8.94;64.98
20628;BME280;10473;42.734;24.258;2022-09-25T03:52:55;92167.25;;;8.94;64.39
20628;BME280;10473;42.734;24.258;2022-09-25T03:55:23;92146.06;;;8.71;65.08
20628;BME280;10473;42.734;24.258;2022-09-25T03:57:54;92163.66;;;8.83;65.33
20628;BME280;10473;42.734;24.258;2022-09-25T04:00:23;92169.44;;;8.88;64.87
20628;BME280;10473;42.734;24.258;2022-09-25T04:02:50;92167.69;;;8.96;64.86
20628;BME280;10473;42.734;24.258;2022-09-25T04:05:18;92161.91;;;8.90;64.60
20628;BME280;10473;42.734;24.258;2022-09-25T04:07:46;92164.56;;;8.90;64.91
20628;BME280;10473;42.734;24.258;2022-09-25T04:10:15;92158.94;;;8.92;64.54
20628;BME280;10473;42.734;24.258;2022-09-25T04:12:43;92162.13;;;9.01;63.97
20628;BME280;10473;42.734;24.258;2022-09-25T04:15:11;92151.22;;;9.02;63.76
20628;BME280;10473;42.734;24.258;2022-09-25T04:17:40;92160.63;;;9.00;63.99
20628;BME280;10473;42.734;24.258;2022-09-25T04:20:08;92149.63;;;8.98;64.21
20628;BME280;10473;42.734;24.258;2022-09-25T04:22:36;92166.03;;;9.07;64.78
20628;BME280;10473;42.734;24.258;2022-09-25T04:25:04;92166.47;;;9.09;64.12
20628;BME280;10473;42.734;24.258;2022-09-25T04:27:34;92161.03;;;9.02;64.49
20628;BME280;10473;42.734;24.258;2022-09-25T04:30:05;92169.50;;;8.92;64.41
20628;BME280;10473;42.734;24.258;2022-09-25T04:32:33;92158.59;;;8.93;64.87
20628;BME280;10473;42.734;24.258;2022-09-25T04:35:18;92169.38;;;9.04;64.88
20628;BME280;10473;42.734;24.258;2022-09-25T04:37:46;92172.69;;;9.20;65.04
20628;BME280;10473;42.734;24.258;2022-09-25T04:40:23;92174.34;;;9.28;64.65
20628;BME280;10473;42.734;24.258;2022-09-25T04:42:58;92173.66;;;9.31;64.97
20628;BME280;10473;42.734;24.258;2022-09-25T04:45:27;92172.25;;;9.37;64.79
20628;BME280;10473;42.734;24.258;2022-09-25T04:47:58;92181.69;;;9.57;65.28
20628;BME280;10473;42.734;24.258;2022-09-25T04:50:27;92194.88;;;9.76;64.66
20628;BME280;10473;42.734;24.258;2022-09-25T04:53:01;92194.53;;;10.00;64.52
20628;BME280;10473;42.734;24.258;2022-09-25T04:55:34;92185.72;;;10.15;64.25
20628;BME280;10473;42.734;24.258;2022-09-25T04:58:15;92182.38;;;10.44;64.15
20628;BME280;10473;42.734;24.258;2022-09-25T05:00:47;92189.41;;;10.59;63.80
20628;BME280;10473;42.734;24.258;2022-09-25T05:03:16;92173.31;;;10.45;62.73
20628;BME280;10473;42.734;24.258;2022-09-25T05:05:54;92196.44;;;10.74;62.68
20628;BME280;10473;42.734;24.258;2022-09-25T05:08:25;92185.16;;;10.80;62.99
20628;BME280;10473;42.734;24.258;2022-09-25T05:10:55;92188.03;;;10.98;63.42
20628;BME280;10473;42.734;24.258;2022-09-25T05:13:25;92185.59;;;11.15;63.46
20628;BME280;10473;42.734;24.258;2022-09-25T05:15:53;92192.22;;;11.28;62.53
20628;BME280;10473;42.734;24.258;2022-09-25T05:18:22;92175.25;;;11.40;64.06
20628;BME280;10473;42.734;24.258;2022-09-25T05:20:50;92172.06;;;11.57;63.59
20628;BME280;10473;42.734;24.258;2022-09-25T05:23:19;92181.06;;;11.82;61.86
20628;BME280;10473;42.734;24.258;2022-09-25T05:25:50;92170.63;;;12.03;62.24
20628;BME280;10473;42.734;24.258;2022-09-25T05:28:19;92192.13;;;12.34;62.79
20628;BME280;10473;42.734;24.258;2022-09-25T05:30:50;92199.94;;;12.64;61.71
20628;BME280;10473;42.734;24.258;2022-09-25T05:33:17;92188.72;;;12.88;59.92
20628;BME280;10473;42.734;24.258;2022-09-25T05:35:45;92198.84;;;13.33;57.98
20628;BME280;10473;42.734;24.258;2022-09-25T05:38:14;92177.56;;;13.40;58.17
20628;BME280;10473;42.734;24.258;2022-09-25T05:40:41;92202.06;;;13.98;55.50
20628;BME280;10473;42.734;24.258;2022-09-25T05:43:09;92198.72;;;14.29;56.22
20628;BME280;10473;42.734;24.258;2022-09-25T05:45:37;92193.00;;;14.62;56.05
20628;BME280;10473;42.734;24.258;2022-09-25T05:48:07;92185.31;;;14.99;54.14
20628;BME280;10473;42.734;24.258;2022-09-25T05:50:36;92189.44;;;15.42;55.87
20628;BME280;10473;42.734;24.258;2022-09-25T05:53:04;92189.97;;;15.91;53.33
20628;BME280;10473;42.734;24.258;2022-09-25T05:55:32;92186.41;;;16.12;48.45
20628;BME280;10473;42.734;24.258;2022-09-25T05:58:00;92165.09;;;15.98;47.68
20628;BME280;10473;42.734;24.258;2022-09-25T06:00:29;92197.09;;;16.70;47.80
20628;BME280;10473;42.734;24.258;2022-09-25T06:02:57;92198.88;;;16.83;51.46
20628;BME280;10473;42.734;24.258;2022-09-25T06:05:27;92179.53;;;17.09;50.55
20628;BME280;10473;42.734;24.258;2022-09-25T06:07:54;92195.06;;;17.62;48.32
20628;BME280;10473;42.734;24.258;2022-09-25T06:10:24;92199.25;;;17.93;49.75
20628;BME280;10473;42.734;24.258;2022-09-25T06:12:55;92200.34;;;18.25;45.98
20628;BME280;10473;42.734;24.258;2022-09-25T06:15:24;92196.28;;;18.44;47.75
20628;BME280;10473;42.734;24.258;2022-09-25T06:17:53;92188.09;;;18.24;47.62
20628;BME280;10473;42.734;24.258;2022-09-25T06:20:20;92199.75;;;18.67;48.91
20628;BME280;10473;42.734;24.258;2022-09-25T06:22:53;92197.16;;;18.64;43.55
20628;BME280;10473;42.734;24.258;2022-09-25T06:25:22;92197.25;;;18.80;43.83
20628;BME280;10473;42.734;24.258;2022-09-25T06:27:51;92204.44;;;19.09;44.48
20628;BME280;10473;42.734;24.258;2022-09-25T06:30:23;92193.22;;;19.37;45.45
20628;BME280;10473;42.734;24.258;2022-09-25T06:32:59;92202.69;;;19.65;46.61
20628;BME280;10473;42.734;24.258;2022-09-25T06:35:28;92202.75;;;20.00;43.88
20628;BME280;10473;42.734;24.258;2022-09-25T06:37:57;92200.03;;;20.20;43.44
20628;BME280;10473;42.734;24.258;2022-09-25T06:40:27;92199.25;;;20.39;46.25
20628;BME280;10473;42.734;24.258;2022-09-25T06:42:55;92208.56;;;20.86;40.43
20628;BME280;10473;42.734;24.258;2022-09-25T06:45:23;92211.28;;;21.02;45.33
20628;BME280;10473;42.734;24.258;2022-09-25T06:47:52;92206.63;;;21.18;44.46
20628;BME280;10473;42.734;24.258;2022-09-25T06:50:23;92212.03;;;21.02;41.97
20628;BME280;10473;42.734;24.258;2022-09-25T06:52:58;92211.03;;;21.12;45.18
20628;BME280;10473;42.734;24.258;2022-09-25T06:55:27;92199.13;;;21.26;42.42
20628;BME280;10473;42.734;24.258;2022-09-25T06:57:55;92213.03;;;21.69;43.16
20628;BME280;10473;42.734;24.258;2022-09-25T07:00:23;92222.34;;;21.52;41.86
20628;BME280;10473;42.734;24.258;2022-09-25T07:02:50;92224.25;;;21.51;41.18
20628;BME280;10473;42.734;24.258;2022-09-25T07:05:35;92220.94;;;21.47;41.29
20628;BME280;10473;42.734;24.258;2022-09-25T07:08:05;92224.41;;;21.32;39.77
20628;BME280;10473;42.734;24.258;2022-09-25T07:10:32;92214.31;;;21.04;40.20
20628;BME280;10473;42.734;24.258;2022-09-25T07:13:00;92221.03;;;21.28;41.05
20628;BME280;10473;42.734;24.258;2022-09-25T07:15:27;92221.00;;;21.44;45.05
20628;BME280;10473;42.734;24.258;2022-09-25T07:17:56;92210.06;;;21.79;43.47
20628;BME280;10473;42.734;24.258;2022-09-25T07:20:24;92220.78;;;22.24;42.98
20628;BME280;10473;42.734;24.258;2022-09-25T07:22:52;92213.22;;;22.19;38.38
20628;BME280;10473;42.734;24.258;2022-09-25T07:25:21;92229.06;;;22.83;41.05
20628;BME280;10473;42.734;24.258;2022-09-25T07:27:49;92222.97;;;23.16;40.79
20628;BME280;10473;42.734;24.258;2022-09-25T07:30:17;92226.91;;;23.62;38.14
20628;BME280;10473;42.734;24.258;2022-09-25T07:32:44;92223.69;;;23.88;36.24
20628;BME280;10473;42.734;24.258;2022-09-25T07:35:12;92213.22;;;23.78;36.31
20628;BME280;10473;42.734;24.258;2022-09-25T07:37:49;92201.94;;;24.44;35.75
20628;BME280;10473;42.734;24.258;2022-09-25T07:40:36;92219.78;;;24.84;34.67
20628;BME280;10473;42.734;24.258;2022-09-25T07:43:04;92218.56;;;25.25;37.55
20628;BME280;10473;42.734;24.258;2022-09-25T07:45:34;92219.28;;;25.65;33.67
20628;BME280;10473;42.734;24.258;2022-09-25T07:48:12;92217.78;;;26.09;31.94
20628;BME280;10473;42.734;24.258;2022-09-25T07:51:00;92213.88;;;25.92;32.29
20628;BME280;10473;42.734;24.258;2022-09-25T07:53:34;92217.75;;;26.36;31.90
20628;BME280;10473;42.734;24.258;2022-09-25T07:56:05;92203.28;;;24.61;34.31
20628;BME280;10473;42.734;24.258;2022-09-25T07:58:34;92183.53;;;24.39;35.79
20628;BME280;10473;42.734;24.258;2022-09-25T08:01:04;92204.78;;;24.62;33.61
20628;BME280;10473;42.734;24.258;2022-09-25T08:03:32;92201.91;;;24.96;34.60
20628;BME280;10473;42.734;24.258;2022-09-25T08:06:05;92207.19;;;25.66;35.82
20628;BME280;10473;42.734;24.258;2022-09-25T08:08:35;92197.50;;;25.29;33.37
20628;BME280;10473;42.734;24.258;2022-09-25T08:11:05;92204.06;;;25.95;33.67
20628;BME280;10473;42.734;24.258;2022-09-25T08:13:34;92208.00;;;26.80;31.68
20628;BME280;10473;42.734;24.258;2022-09-25T08:16:04;92210.81;;;27.36;31.69
20628;BME280;10473;42.734;24.258;2022-09-25T08:18:32;92208.13;;;27.74;32.03
20628;BME280;10473;42.734;24.258;2022-09-25T08:21:00;92208.91;;;28.65;31.93
20628;BME280;10473;42.734;24.258;2022-09-25T08:23:29;92216.59;;;28.38;29.31
20628;BME280;10473;42.734;24.258;2022-09-25T08:25:57;92207.81;;;28.72;29.18
20628;BME280;10473;42.734;24.258;2022-09-25T08:28:27;92213.41;;;29.46;28.46
20628;BME280;10473;42.734;24.258;2022-09-25T08:30:57;92211.06;;;26.55;30.62
20628;BME280;10473;42.734;24.258;2022-09-25T08:33:25;92209.03;;;26.23;31.12
20628;BME280;10473;42.734;24.258;2022-09-25T08:35:54;92211.19;;;26.79;31.13
20628;BME280;10473;42.734;24.258;2022-09-25T08:38:22;92208.88;;;27.60;30.90
20628;BME280;10473;42.734;24.258;2022-09-25T08:40:54;92210.63;;;28.10;31.49
20628;BME280;10473;42.734;24.258;2022-09-25T08:43:26;92195.66;;;29.02;29.97
20628;BME280;10473;42.734;24.258;2022-09-25T08:45:56;92195.47;;;28.62;28.74
20628;BME280;10473;42.734;24.258;2022-09-25T08:48:46;92190.63;;;29.49;29.34
20628;BME280;10473;42.734;24.258;2022-09-25T08:51:36;92181.66;;;30.03;29.36
20628;BME280;10473;42.734;24.258;2022-09-25T08:54:33;92185.03;;;29.38;26.12
20628;BME280;10473;42.734;24.258;2022-09-25T08:57:15;92175.63;;;29.99;25.46
20628;BME280;10473;42.734;24.258;2022-09-25T08:59:51;92154.69;;;28.00;27.88
20628;BME280;10473;42.734;24.258;2022-09-25T09:02:22;92156.03;;;26.78;29.09
20628;BME280;10473;42.734;24.258;2022-09-25T09:04:54;92162.41;;;28.16;28.04
20628;BME280;10473;42.734;24.258;2022-09-25T09:07:24;92166.38;;;28.73;27.90
20628;BME280;10473;42.734;24.258;2022-09-25T09:10:00;92171.84;;;29.37;28.67
20628;BME280;10473;42.734;24.258;2022-09-25T09:12:35;92174.16;;;29.58;27.23
20628;BME280;10473;42.734;24.258;2022-09-25T09:15:15;92168.16;;;30.45;25.36
20628;BME280;10473;42.734;24.258;2022-09-25T09:17:43;92168.94;;;30.00;25.44
20628;BME280;10473;42.734;24.258;2022-09-25T09:20:16;92169.41;;;30.95;23.99
20628;BME280;10473;42.734;24.258;2022-09-25T09:22:47;92154.78;;;31.40;24.03
20628;BME280;10473;42.734;24.258;2022-09-25T09:25:25;92172.53;;;31.98;22.29
20628;BME280;10473;42.734;24.258;2022-09-25T09:28:15;92168.66;;;32.37;22.95
20628;BME280;10473;42.734;24.258;2022-09-25T09:30:54;92150.78;;;31.83;21.36
20628;BME280;10473;42.734;24.258;2022-09-25T09:33:37;92164.22;;;32.45;22.95
20628;BME280;10473;42.734;24.258;2022-09-25T09:36:13;92153.78;;;31.43;20.79
20628;BME280;10473;42.734;24.258;2022-09-25T09:38:49;92156.81;;;30.27;24.43
20628;BME280;10473;42.734;24.258;2022-09-25T09:41:30;92148.19;;;31.21;23.59
20628;BME280;10473;42.734;24.258;2022-09-25T09:44:08;92154.50;;;31.38;23.27
20628;BME280;10473;42.734;24.258;2022-09-25T09:46:48;92149.19;;;31.71;24.00
20628;BME280;10473;42.734;24.258;2022-09-25T09:49:19;92150.09;;;31.99;24.05
20628;BME280;10473;42.734;24.258;2022-09-25T09:51:51;92142.09;;;31.06;23.76
20628;BME280;10473;42.734;24.258;2022-09-25T09:54:25;92142.44;;;31.61;24.48
20628;BME280;10473;42.734;24.258;2022-09-25T09:57:05;92149.78;;;31.86;22.57
20628;BME280;10473;42.734;24.258;2022-09-25T09:59:42;92150.78;;;31.05;22.37
20628;BME280;10473;42.734;24.258;2022-09-25T10:02:22;92146.13;;;31.16;24.40
20628;BME280;10473;42.734;24.258;2022-09-25T10:04:54;92143.25;;;31.25;22.61
20628;BME280;10473;42.734;24.258;2022-09-25T10:07:22;92139.75;;;31.25;23.40
20628;BME280;10473;42.734;24.258;2022-09-25T10:09:54;92144.03;;;30.69;22.68
20628;BME280;10473;42.734;24.258;2022-09-25T10:12:26;92134.84;;;30.41;24.01
20628;BME280;10473;42.734;24.258;2022-09-25T10:14:57;92135.66;;;28.29;25.62
20628;BME280;10473;42.734;24.258;2022-09-25T10:17:29;92114.53;;;27.48;26.00
20628;BME280;10473;42.734;24.258;2022-09-25T10:20:00;92133.09;;;27.73;26.41
20628;BME280;10473;42.734;24.258;2022-09-25T10:22:36;92128.97;;;28.45;27.19
20628;BME280;10473;42.734;24.258;2022-09-25T10:25:05;92126.69;;;28.72;29.28
20628;BME280;10473;42.734;24.258;2022-09-25T10:27:34;92117.72;;;28.86;28.29
20628;BME280;10473;42.734;24.258;2022-09-25T10:30:13;92128.34;;;29.13;29.11
20628;BME280;10473;42.734;24.258;2022-09-25T10:32:45;92133.19;;;29.24;25.75
20628;BME280;10473;42.734;24.258;2022-09-25T10:35:15;92126.22;;;29.23;26.90
20628;BME280;10473;42.734;24.258;2022-09-25T10:37:47;92122.03;;;28.93;25.21
20628;BME280;10473;42.734;24.258;2022-09-25T10:40:29;92128.91;;;27.87;26.52
20628;BME280;10473;42.734;24.258;2022-09-25T10:43:05;92118.09;;;27.78;27.08
20628;BME280;10473;42.734;24.258;2022-09-25T10:45:40;92117.94;;;27.11;26.23
20628;BME280;10473;42.734;24.258;2022-09-25T10:48:36;92112.56;;;26.69;27.89
20628;BME280;10473;42.734;24.258;2022-09-25T10:51:22;92105.19;;;26.10;27.56
20628;BME280;10473;42.734;24.258;2022-09-25T10:53:51;92099.50;;;24.21;30.25
20628;BME280;10473;42.734;24.258;2022-09-25T10:56:21;92093.59;;;24.13;32.01
20628;BME280;10473;42.734;24.258;2022-09-25T10:58:54;92095.00;;;23.75;30.82
20628;BME280;10473;42.734;24.258;2022-09-25T11:01:30;92093.13;;;24.15;32.23
20628;BME280;10473;42.734;24.258;2022-09-25T11:04:04;92097.63;;;23.66;31.52
20628;BME280;10473;42.734;24.258;2022-09-25T11:06:34;92092.84;;;23.70;32.48
20628;BME280;10473;42.734;24.258;2022-09-25T11:09:06;92093.09;;;24.06;33.67
20628;BME280;10473;42.734;24.258;2022-09-25T11:11:35;92087.84;;;23.81;31.99
20628;BME280;10473;42.734;24.258;2022-09-25T11:14:07;92095.84;;;24.15;31.67
20628;BME280;10473;42.734;24.258;2022-09-25T11:16:46;92100.47;;;24.36;33.69
20628;BME280;10473;42.734;24.258;2022-09-25T11:19:21;92096.75;;;24.12;31.06
20628;BME280;10473;42.734;24.258;2022-09-25T11:21:56;92096.75;;;24.12;33.10
20628;BME280;10473;42.734;24.258;2022-09-25T11:24:36;92083.28;;;23.99;31.76
20628;BME280;10473;42.734;24.258;2022-09-25T11:27:10;92091.16;;;23.08;32.27
20628;BME280;10473;42.734;24.258;2022-09-25T11:29:50;92083.00;;;23.33;34.86
20628;BME280;10473;42.734;24.258;2022-09-25T11:32:25;92090.47;;;23.29;33.04
20628;BME280;10473;42.734;24.258;2022-09-25T11:38:07;92086.44;;;23.55;33.00
20628;BME280;10473;42.734;24.258;2022-09-25T11:40:42;92081.72;;;23.46;32.91
20628;BME280;10473;42.734;24.258;2022-09-25T11:43:50;92080.53;;;23.69;32.39
20628;BME280;10473;42.734;24.258;2022-09-25T11:46:25;92079.09;;;23.77;33.40
20628;BME280;10473;42.734;24.258;2022-09-25T11:49:08;92081.38;;;22.89;32.76
20628;BME280;10473;42.734;24.258;2022-09-25T11:52:06;92076.06;;;23.32;32.94
20628;BME280;10473;42.734;24.258;2022-09-25T11:54:51;92074.13;;;23.54;33.36
20628;BME280;10473;42.734;24.258;2022-09-25T11:57:27;92065.81;;;23.27;32.22
20628;BME280;10473;42.734;24.258;2022-09-25T12:00:06;92066.16;;;23.16;34.27
20628;BME280;10473;42.734;24.258;2022-09-25T12:02:44;92065.91;;;22.43;34.02
20628;BME280;10473;42.734;24.258;2022-09-25T12:08:31;92061.91;;;22.35;36.27
20628;BME280;10473;42.734;24.258;2022-09-25T12:11:10;92062.34;;;21.96;35.13
20628;BME280;10473;42.734;24.258;2022-09-25T12:13:45;92056.94;;;22.33;35.96
20628;BME280;10473;42.734;24.258;2022-09-25T12:16:23;92063.84;;;22.34;35.79
20628;BME280;10473;42.734;24.258;2022-09-25T12:19:06;92061.78;;;22.26;35.35
20628;BME280;10473;42.734;24.258;2022-09-25T12:21:41;92056.81;;;22.12;36.62
20628;BME280;10473;42.734;24.258;2022-09-25T12:24:20;92055.44;;;22.45;35.99
20628;BME280;10473;42.734;24.258;2022-09-25T12:26:59;92054.66;;;22.57;34.92
20628;BME280;10473;42.734;24.258;2022-09-25T12:29:50;92046.56;;;22.07;34.88
20628;BME280;10473;42.734;24.258;2022-09-25T12:32:28;92048.19;;;22.29;35.57
20628;BME280;10473;42.734;24.258;2022-09-25T12:35:16;92054.78;;;22.16;35.11
20628;BME280;10473;42.734;24.258;2022-09-25T12:37:51;92045.28;;;22.49;34.41
20628;BME280;10473;42.734;24.258;2022-09-25T12:40:24;92050.22;;;22.63;34.10
20628;BME280;10473;42.734;24.258;2022-09-25T12:42:59;92036.69;;;22.75;34.60
20628;BME280;10473;42.734;24.258;2022-09-25T12:45:34;92041.72;;;22.86;34.79
20628;BME280;10473;42.734;24.258;2022-09-25T12:48:10;92035.22;;;22.49;35.46
20628;BME280;10473;42.734;24.258;2022-09-25T12:50:46;92030.91;;;22.27;35.13
20628;BME280;10473;42.734;24.258;2022-09-25T12:53:30;92023.25;;;22.13;35.29
20628;BME280;10473;42.734;24.258;2022-09-25T12:56:03;92024.25;;;21.94;36.12
20628;BME280;10473;42.734;24.258;2022-09-25T12:58:45;92017.22;;;21.96;36.33
20628;BME280;10473;42.734;24.258;2022-09-25T13:01:20;92015.81;;;21.79;36.05
20628;BME280;10473;42.734;24.258;2022-09-25T13:04:00;92027.56;;;22.10;35.97
20628;BME280;10473;42.734;24.258;2022-09-25T13:06:38;92029.97;;;21.96;35.62
20628;BME280;10473;42.734;24.258;2022-09-25T13:09:17;92011.59;;;22.03;35.31
20628;BME280;10473;42.734;24.258;2022-09-25T13:11:50;92021.09;;;22.08;34.93
20628;BME280;10473;42.734;24.258;2022-09-25T13:14:28;92017.09;;;21.62;34.39
20628;BME280;10473;42.734;24.258;2022-09-25T13:16:59;92010.53;;;21.76;33.93
20628;BME280;10473;42.734;24.258;2022-09-25T13:19:28;92011.91;;;21.93;35.01
20628;BME280;10473;42.734;24.258;2022-09-25T13:22:00;92006.44;;;22.09;33.64
20628;BME280;10473;42.734;24.258;2022-09-25T13:24:35;92015.69;;;21.83;33.33
20628;BME280;10473;42.734;24.258;2022-09-25T13:27:11;92005.56;;;21.87;31.34
20628;BME280;10473;42.734;24.258;2022-09-25T13:29:42;92001.66;;;21.88;31.94